Terminal Aerodrome Forecast
Issued by NWS

Home | Current Version | Previous Version | Graphics & Text | Print | Product List | Glossary On
Versions: 1 2 3 4 5 6 7 8 9 10 11 12 13 14 15 16 17 18 19 20 21
000
FTUS43 KTOP 150407 AAC
TAFFOE
TAF AMD
KFOE 150407Z 1504/1524 30010KT P6SM -RASN OVC035
     FM150700 33012G22KT P6SM SCT030 BKN050
     FM151300 33014G22KT P6SM BKN030=

USA.gov is the U.S. government's official web portal to all federal, state and local government web resources and services.